Time;durP1;ratioP1;P1;durP2;ratioP2;P2;SDS_P1;SDS_P2;PMS_P1;PMS_P2;Temp;Humidity;BMP_temperature;BMP_pressure;BME280_temperature;BME280_humidity;BME280_pressure;Samples;Min_cycle;Max_cycle;Signal;HPM_P1;HPM_P2
2022/09/02 00:02:11;;;;;;;16.38;14.30;;;;;;;20.93;nan;94712.69;5028740;28;20672;-69
2022/09/02 00:04:39;;;;;;;14.68;13.20;;;;;;;21.15;nan;94710.97;5030733;28;20605;-69
2022/09/02 00:07:06;;;;;;;15.68;12.65;;;;;;;21.36;nan;94711.84;5029145;28;20226;-70
2022/09/02 00:09:33;;;;;;;14.43;12.20;;;;;;;21.43;nan;94714.78;5030612;28;20214;-69
2022/09/02 00:11:59;;;;;;;17.35;12.65;;;;;;;21.55;nan;94706.81;5030053;28;20206;-69
2022/09/02 00:14:29;;;;;;;14.88;13.40;;;;;;;21.55;nan;94711.97;5029611;28;20230;-69
2022/09/02 00:16:59;;;;;;;14.80;12.68;;;;;;;21.28;nan;94709.09;5030987;28;20206;-69
2022/09/02 00:19:27;;;;;;;14.43;12.88;;;;;;;21.30;nan;94720.09;5030267;28;20668;-69
2022/09/02 00:21:57;;;;;;;19.15;13.70;;;;;;;21.12;nan;94713.81;5029725;28;20499;-69
2022/09/02 00:24:24;;;;;;;15.40;13.85;;;;;;;21.01;nan;94718.09;5028435;28;20803;-70
2022/09/02 00:26:51;;;;;;;17.30;13.93;;;;;;;21.13;nan;94720.63;5026069;28;20704;-69
2022/09/02 00:29:18;;;;;;;15.77;12.48;;;;;;;21.21;nan;94726.03;5029921;28;20210;-69
2022/09/02 00:31:46;;;;;;;14.27;12.77;;;;;;;21.22;nan;94733.66;5028214;28;20299;-69
2022/09/02 00:34:14;;;;;;;14.27;12.88;;;;;;;21.56;nan;94739.47;5028735;28;20230;-69
2022/09/02 00:36:41;;;;;;;15.30;13.65;;;;;;;21.83;nan;94740.75;5028306;28;20205;-69
2022/09/02 00:39:09;;;;;;;13.90;12.48;;;;;;;21.90;nan;94736.72;5028090;28;20954;-69
2022/09/02 00:41:38;;;;;;;17.05;12.73;;;;;;;21.83;nan;94740.75;5028100;28;20226;-69
2022/09/02 00:44:07;;;;;;;13.38;12.18;;;;;;;21.75;nan;94743.16;5028466;28;20210;-68
2022/09/02 00:46:34;;;;;;;13.40;11.80;;;;;;;21.93;nan;94731.28;5026255;28;20207;-70
2022/09/02 00:49:05;;;;;;;13.30;12.07;;;;;;;21.83;nan;94740.75;5028901;28;20207;-69
2022/09/02 00:51:36;;;;;;;13.80;12.48;;;;;;;21.91;nan;94743.53;5029193;28;20684;-69
2022/09/02 00:54:05;;;;;;;12.82;11.57;;;;;;;21.87;nan;94734.38;5029423;28;20242;-68
2022/09/02 00:56:36;;;;;;;12.48;11.20;;;;;;;22.04;nan;94738.97;5027681;28;20298;-69
2022/09/02 00:59:04;;;;;;;12.93;11.68;;;;;;;22.04;nan;94738.97;5029717;28;20234;-69
2022/09/02 01:01:30;;;;;;;15.35;11.20;;;;;;;21.99;nan;94738.53;5028934;28;20264;-69
2022/09/02 01:03:57;;;;;;;19.60;13.30;;;;;;;21.36;nan;94738.53;5029204;28;20244;-70
2022/09/02 01:06:27;;;;;;;18.00;12.60;;;;;;;21.47;nan;94753.19;5027153;28;20229;-70
2022/09/02 01:08:58;;;;;;;13.98;12.52;;;;;;;21.91;nan;94759.03;5029546;28;20270;-71
2022/09/02 01:11:31;;;;;;;16.40;11.85;;;;;;;22.23;nan;94754.63;5029020;28;20309;-69
2022/09/02 01:14:00;;;;;;;13.55;12.02;;;;;;;22.30;nan;94755.72;5028498;28;20210;-69
2022/09/02 01:16:33;;;;;;;15.00;12.27;;;;;;;22.35;nan;94755.34;5027756;28;20747;-70
2022/09/02 01:19:03;;;;;;;11.77;10.65;;;;;;;22.36;nan;94759.56;5025593;28;20198;-69
2022/09/02 01:21:30;;;;;;;11.02;10.02;;;;;;;22.50;nan;94761.00;5026714;28;20761;-69
2022/09/02 01:23:59;;;;;;;11.70;10.02;;;;;;;22.61;nan;94759.13;5029342;28;20293;-69
2022/09/02 01:26:26;;;;;;;9.65;8.90;;;;;;;22.68;nan;94754.25;5027482;28;20960;-69
2022/09/02 01:28:52;;;;;;;10.02;9.15;;;;;;;22.71;nan;94754.00;5027553;28;20202;-69
2022/09/02 01:31:19;;;;;;;9.35;8.52;;;;;;;22.73;nan;94757.28;5027719;28;20729;-69
2022/09/02 01:33:46;;;;;;;8.77;8.18;;;;;;;22.81;nan;94754.03;5028802;28;20206;-69
2022/09/02 01:36:13;;;;;;;10.52;9.35;;;;;;;22.82;nan;94748.72;5028564;28;20268;-69
2022/09/02 01:38:40;;;;;;;9.43;8.73;;;;;;;22.63;nan;94752.03;5027096;28;20194;-72
2022/09/02 01:41:08;;;;;;;9.88;9.10;;;;;;;22.54;nan;94758.00;5027775;28;20326;-69
2022/09/02 01:43:35;;;;;;;8.98;8.23;;;;;;;22.55;nan;94756.22;5027512;28;20206;-69
2022/09/02 01:46:02;;;;;;;8.65;7.97;;;;;;;22.81;nan;94734.13;5028312;28;20214;-69
2022/09/02 01:48:29;;;;;;;8.82;7.97;;;;;;;22.79;nan;94730.84;5027497;28;20233;-69
2022/09/02 01:50:58;;;;;;;7.28;6.75;;;;;;;22.63;nan;94725.31;5027118;28;20561;-69
2022/09/02 01:53:25;;;;;;;7.82;7.13;;;;;;;22.50;nan;94709.22;5028146;28;20629;-70
2022/09/02 01:55:53;;;;;;;7.07;6.47;;;;;;;22.46;nan;94697.47;5027372;28;20230;-69
2022/09/02 01:58:22;;;;;;;6.80;6.18;;;;;;;22.45;nan;94695.84;5028139;28;20206;-69
2022/09/02 02:00:48;;;;;;;5.85;5.45;;;;;;;22.40;nan;94691.88;5024600;28;21968;-68
2022/09/02 02:03:15;;;;;;;6.55;5.97;;;;;;;22.30;nan;94688.44;5025560;28;20256;-70
2022/09/02 02:05:42;;;;;;;5.53;4.97;;;;;;;22.13;nan;94670.94;5025525;28;20222;-69
2022/09/02 02:08:09;;;;;;;6.35;5.30;;;;;;;21.84;nan;94669.94;5026164;28;20202;-69
2022/09/02 02:10:36;;;;;;;8.98;8.05;;;;;;;21.51;nan;94658.91;5024000;28;20252;-70
2022/09/02 02:13:03;;;;;;;5.15;4.75;;;;;;;21.09;nan;94667.53;5025667;28;20206;-70
2022/09/02 02:15:31;;;;;;;5.13;4.72;;;;;;;20.78;nan;94659.69;5026192;28;20299;-68
2022/09/02 02:17:58;;;;;;;19.67;15.40;;;;;;;20.71;nan;94653.38;5026731;28;20206;-69
2022/09/02 02:20:25;;;;;;;21.15;16.80;;;;;;;20.50;nan;94648.16;5026422;28;20203;-70
2022/09/02 02:22:53;;;;;;;27.77;18.38;;;;;;;20.49;nan;94643.94;5025275;28;20312;-69
2022/09/02 02:25:19;;;;;;;8.55;6.63;;;;;;;20.61;nan;94648.13;5028244;28;21675;-70
2022/09/02 02:27:46;;;;;;;10.10;8.60;;;;;;;20.17;nan;94664.47;5028869;28;20211;-71
2022/09/02 02:30:15;;;;;;;8.80;7.90;;;;;;;20.02;nan;94670.84;5027559;28;20203;-71
2022/09/02 02:32:45;;;;;;;9.30;8.25;;;;;;;20.25;nan;94680.19;5028533;28;20209;-69
2022/09/02 02:35:13;;;;;;;11.48;10.32;;;;;;;20.28;nan;94685.13;5027346;28;20626;-70
2022/09/02 02:37:40;;;;;;;9.98;9.18;;;;;;;20.13;nan;94683.72;5027612;28;20676;-70
2022/09/02 02:40:09;;;;;;;8.20;7.38;;;;;;;20.12;nan;94694.97;5025276;28;20226;-69
2022/09/02 02:42:36;;;;;;;9.23;8.52;;;;;;;20.15;nan;94696.50;5027856;28;20350;-69
2022/09/02 02:45:03;;;;;;;20.75;17.50;;;;;;;20.20;nan;94694.38;5027396;28;20573;-69
2022/09/02 02:47:30;;;;;;;10.05;9.25;;;;;;;20.25;nan;94700.84;5026900;28;20235;-70
2022/09/02 02:49:58;;;;;;;9.35;8.68;;;;;;;20.29;nan;94704.00;5023474;28;20640;-70
2022/09/02 02:52:25;;;;;;;8.90;8.10;;;;;;;19.83;nan;94696.34;5025054;28;20614;-70
2022/09/02 02:54:52;;;;;;;9.05;8.32;;;;;;;19.68;nan;94701.75;5030015;28;20325;-70
2022/09/02 02:57:19;;;;;;;10.07;9.27;;;;;;;19.80;nan;94707.72;5030585;28;20759;-71
2022/09/02 02:59:46;;;;;;;9.65;8.77;;;;;;;19.91;nan;94704.34;5028717;28;20260;-70
2022/09/02 03:02:12;;;;;;;8.98;8.27;;;;;;;19.48;nan;94697.22;5031166;28;20279;-70
2022/09/02 03:04:40;;;;;;;8.98;8.23;;;;;;;19.40;nan;94704.69;5031182;28;20198;-70
2022/09/02 03:07:08;;;;;;;14.48;13.05;;;;;;;19.70;nan;94701.63;5028003;28;20305;-70
2022/09/02 03:09:35;;;;;;;28.15;22.13;;;;;;;20.02;nan;94696.63;5030246;28;20309;-71
2022/09/02 03:12:03;;;;;;;9.05;8.35;;;;;;;19.89;nan;94701.06;5029706;28;20195;-70
2022/09/02 03:14:31;;;;;;;13.15;11.85;;;;;;;19.97;nan;94706.47;5030183;28;20565;-71
2022/09/02 03:16:58;;;;;;;11.38;10.10;;;;;;;20.15;nan;94701.66;5029441;28;20601;-71
2022/09/02 03:19:26;;;;;;;9.18;8.32;;;;;;;19.93;nan;94699.91;5031036;28;20218;-71
2022/09/02 03:21:53;;;;;;;14.48;9.75;;;;;;;20.22;nan;94703.66;5028515;28;20198;-71
2022/09/02 03:24:21;;;;;;;9.23;8.52;;;;;;;20.38;nan;94698.97;5032247;28;20219;-71
2022/09/02 03:26:48;;;;;;;9.27;8.68;;;;;;;20.42;nan;94704.72;5029799;28;20293;-70
2022/09/02 03:29:15;;;;;;;26.33;21.27;;;;;;;20.13;nan;94704.34;5029688;28;20260;-71
2022/09/02 03:31:42;;;;;;;14.77;12.85;;;;;;;20.22;nan;94706.22;5028024;28;20263;-70
2022/09/02 03:34:10;;;;;;;10.30;9.40;;;;;;;20.23;nan;94700.13;5029619;28;20203;-70
2022/09/02 03:36:39;;;;;;;11.20;10.30;;;;;;;20.40;nan;94706.59;5029407;28;20785;-71
2022/09/02 03:39:07;;;;;;;10.07;9.30;;;;;;;20.60;nan;94712.78;5030046;28;20237;-71
2022/09/02 03:41:35;;;;;;;9.30;8.60;;;;;;;20.64;nan;94712.41;5028654;28;20207;-71
2022/09/02 03:44:02;;;;;;;9.75;9.05;;;;;;;20.75;nan;94709.00;5031345;28;20663;-71
2022/09/02 03:46:30;;;;;;;11.27;8.45;;;;;;;20.70;nan;94721.44;5031571;28;20210;-70
2022/09/02 03:48:57;;;;;;;9.05;8.20;;;;;;;20.75;nan;94721.09;5030415;28;20203;-71
2022/09/02 03:51:24;;;;;;;10.18;9.32;;;;;;;20.74;nan;94725.44;5030247;28;20704;-71
2022/09/02 03:53:51;;;;;;;9.68;8.98;;;;;;;20.81;nan;94736.91;5030727;28;20311;-70
2022/09/02 03:56:18;;;;;;;9.80;9.05;;;;;;;20.60;nan;94738.59;5031088;28;20639;-71
2022/09/02 03:58:49;;;;;;;9.38;8.77;;;;;;;20.38;nan;94727.34;5031190;28;20202;-72
2022/09/02 04:01:17;;;;;;;10.35;9.00;;;;;;;20.14;nan;94738.72;5029585;28;20253;-70
2022/09/02 04:03:45;;;;;;;9.23;8.57;;;;;;;20.22;nan;94744.94;5031187;28;20230;-71
2022/09/02 04:06:12;;;;;;;10.55;9.73;;;;;;;20.41;nan;94740.97;5030987;28;20233;-72
2022/09/02 04:08:40;;;;;;;10.40;9.50;;;;;;;20.57;nan;94749.16;5029624;28;20243;-72
2022/09/02 04:11:08;;;;;;;10.38;9.48;;;;;;;20.69;nan;94749.03;5029835;28;20211;-73
2022/09/02 04:13:35;;;;;;;9.55;8.65;;;;;;;20.86;nan;94758.03;5030020;28;20202;-71
2022/09/02 04:16:07;;;;;;;9.63;8.88;;;;;;;20.71;nan;94756.66;5029391;28;20252;-70
2022/09/02 04:18:34;;;;;;;9.23;8.57;;;;;;;20.94;nan;94770.34;5029644;28;20251;-71
2022/09/02 04:21:01;;;;;;;9.75;8.73;;;;;;;20.96;nan;94765.88;5029235;28;20245;-72
2022/09/02 04:23:28;;;;;;;9.65;8.85;;;;;;;20.89;nan;94765.53;5029532;28;20263;-72
2022/09/02 04:25:55;;;;;;;10.68;9.75;;;;;;;20.79;nan;94767.19;5029572;28;20610;-72
2022/09/02 04:28:22;;;;;;;10.00;9.20;;;;;;;20.84;nan;94767.66;5029083;28;20203;-72
2022/09/02 04:30:49;;;;;;;20.38;15.93;;;;;;;20.86;nan;94775.28;5028566;28;21292;-70
2022/09/02 04:33:17;;;;;;;12.57;11.48;;;;;;;20.60;nan;94772.97;5030459;28;20206;-70
2022/09/02 04:35:47;;;;;;;11.48;10.52;;;;;;;20.74;nan;94771.94;5029744;28;20551;-70
2022/09/02 04:38:14;;;;;;;11.00;9.95;;;;;;;20.93;nan;94777.28;5029374;28;20212;-70
2022/09/02 04:40:42;;;;;;;11.65;10.73;;;;;;;20.79;nan;94769.00;5028405;28;20206;-71
2022/09/02 04:43:09;;;;;;;10.50;9.70;;;;;;;20.87;nan;94776.94;5028943;28;20607;-70
2022/09/02 04:45:39;;;;;;;11.18;10.18;;;;;;;20.88;nan;94778.56;5029488;28;20259;-70
2022/09/02 04:48:06;;;;;;;11.27;10.25;;;;;;;20.90;nan;94782.69;5028211;28;20202;-71
2022/09/02 04:50:36;;;;;;;10.70;9.57;;;;;;;20.71;nan;94778.16;5028686;28;20597;-71
2022/09/02 04:53:03;;;;;;;18.73;16.55;;;;;;;20.47;nan;94781.81;5029333;28;20683;-71
2022/09/02 04:55:30;;;;;;;34.38;25.40;;;;;;;20.18;nan;94787.38;5028488;28;20238;-71
2022/09/02 04:57:56;;;;;;;20.55;17.92;;;;;;;20.16;nan;94784.09;5030009;28;20249;-71
2022/09/02 05:00:23;;;;;;;12.55;11.30;;;;;;;20.30;nan;94794.19;5029393;28;20295;-71
2022/09/02 05:02:50;;;;;;;12.27;11.18;;;;;;;20.52;nan;94793.41;5030045;28;20263;-70
2022/09/02 05:05:17;;;;;;;11.13;10.18;;;;;;;20.65;nan;94782.97;5029303;28;20202;-70
2022/09/02 05:07:45;;;;;;;11.50;10.60;;;;;;;20.63;nan;94787.41;5028902;28;20214;-70
2022/09/02 05:10:12;;;;;;;11.85;10.82;;;;;;;20.67;nan;94788.81;5029064;28;20233;-70
2022/09/02 05:12:40;;;;;;;12.02;10.88;;;;;;;20.41;nan;94795.16;5029599;28;20202;-71
2022/09/02 05:15:08;;;;;;;12.13;10.60;;;;;;;20.19;nan;94786.44;5029136;28;20203;-70
2022/09/02 05:17:35;;;;;;;12.18;11.00;;;;;;;20.42;nan;94796.81;5031437;28;20289;-70
2022/09/02 05:20:04;;;;;;;13.95;12.57;;;;;;;20.62;nan;94793.53;5029783;28;20210;-70
2022/09/02 05:22:31;;;;;;;12.95;11.75;;;;;;;20.70;nan;94797.16;5028922;28;20609;-70
2022/09/02 05:24:59;;;;;;;11.55;10.65;;;;;;;20.89;nan;94799.13;5028821;28;20215;-70
2022/09/02 05:27:25;;;;;;;12.10;10.93;;;;;;;21.09;nan;94807.06;5028442;28;20684;-71
2022/09/02 05:29:55;;;;;;;11.98;10.80;;;;;;;21.13;nan;94800.72;5028638;28;20202;-71
2022/09/02 05:32:23;;;;;;;10.57;9.77;;;;;;;21.24;nan;94804.13;5027423;28;20202;-70
2022/09/02 05:34:49;;;;;;;10.95;9.95;;;;;;;21.30;nan;94795.06;5028784;28;20227;-70
2022/09/02 05:37:16;;;;;;;12.65;11.45;;;;;;;21.31;nan;94797.50;5029147;28;20226;-71
2022/09/02 05:39:43;;;;;;;11.65;10.45;;;;;;;21.36;nan;94799.75;5028788;28;20652;-73
2022/09/02 05:42:11;;;;;;;11.98;11.10;;;;;;;21.27;nan;94790.16;5027784;28;20302;-70
2022/09/02 05:44:38;;;;;;;13.68;11.48;;;;;;;21.05;nan;94790.97;5029347;28;20279;-71
2022/09/02 05:47:06;;;;;;;12.30;11.10;;;;;;;21.19;nan;94797.66;5028519;28;20201;-69
2022/09/02 05:49:32;;;;;;;11.93;10.90;;;;;;;21.21;nan;94778.53;5028467;28;20230;-69
2022/09/02 05:52:01;;;;;;;13.25;12.05;;;;;;;21.20;nan;94789.81;5027544;28;20765;-69
2022/09/02 05:54:29;;;;;;;12.57;11.48;;;;;;;21.33;nan;94793.03;5030150;28;20622;-70
2022/09/02 05:56:59;;;;;;;12.48;11.18;;;;;;;21.17;nan;94781.44;5029150;28;20221;-70
2022/09/02 05:59:29;;;;;;;12.07;11.18;;;;;;;21.34;nan;94780.94;5028293;28;20202;-70
2022/09/02 06:01:57;;;;;;;12.68;11.48;;;;;;;21.58;nan;94780.72;5028324;28;20672;-70
2022/09/02 06:04:24;;;;;;;13.13;10.48;;;;;;;21.86;nan;94782.72;5029055;28;21076;-71
2022/09/02 06:06:51;;;;;;;12.75;11.35;;;;;;;21.91;nan;94774.56;5026991;28;20228;-70
2022/09/02 06:09:20;;;;;;;12.07;10.90;;;;;;;21.85;nan;94785.41;5028492;28;20205;-71
2022/09/02 06:11:48;;;;;;;14.05;12.02;;;;;;;21.82;nan;94788.25;5027131;28;20211;-70
2022/09/02 06:14:18;;;;;;;12.40;11.30;;;;;;;21.63;nan;94787.19;5028238;28;20213;-69
2022/09/02 06:16:46;;;;;;;12.15;11.20;;;;;;;21.64;nan;94783.66;5027719;28;20246;-70
2022/09/02 06:19:13;;;;;;;16.77;12.68;;;;;;;21.61;nan;94783.88;5028576;28;20233;-70
2022/09/02 06:21:41;;;;;;;16.48;12.43;;;;;;;21.64;nan;94788.81;5027135;28;20206;-70
2022/09/02 06:24:09;;;;;;;17.13;15.05;;;;;;;21.70;nan;94788.31;5028596;28;20287;-70
2022/09/02 06:26:37;;;;;;;14.20;12.85;;;;;;;21.81;nan;94795.19;5027645;28;20753;-71
2022/09/02 06:29:05;;;;;;;13.60;12.18;;;;;;;21.72;nan;94795.97;5029673;28;20260;-71
2022/09/02 06:31:32;;;;;;;14.32;12.90;;;;;;;21.63;nan;94792.34;5031217;28;20520;-71
2022/09/02 06:34:01;;;;;;;13.50;12.30;;;;;;;21.48;nan;94796.19;5033026;28;20732;-69
2022/09/02 06:36:29;;;;;;;17.38;12.73;;;;;;;21.59;nan;94801.28;5030651;28;20233;-70
2022/09/02 06:38:58;;;;;;;14.25;12.88;;;;;;;21.21;nan;94795.81;5031250;28;20202;-70
2022/09/02 06:41:27;;;;;;;13.02;11.82;;;;;;;21.31;nan;94807.03;5031250;28;20260;-71
2022/09/02 06:43:56;;;;;;;14.57;12.95;;;;;;;21.46;nan;94798.06;5028423;28;20209;-70
2022/09/02 06:46:25;;;;;;;16.52;13.60;;;;;;;21.15;nan;94806.59;5031233;28;20209;-70
2022/09/02 06:48:52;;;;;;;14.10;12.80;;;;;;;21.24;nan;94808.50;5031105;28;20653;-69
2022/09/02 06:51:22;;;;;;;17.13;14.05;;;;;;;21.12;nan;94806.81;5031101;28;20798;-70
2022/09/02 06:53:49;;;;;;;15.82;13.93;;;;;;;21.01;nan;94811.09;5031872;28;21983;-71
2022/09/02 06:56:16;;;;;;;19.75;16.55;;;;;;;20.95;nan;94816.72;5032580;28;20614;-70
2022/09/02 06:58:42;;;;;;;18.00;15.32;;;;;;;20.95;nan;94811.56;5031103;28;20225;-71
2022/09/02 07:01:10;;;;;;;19.20;13.90;;;;;;;20.86;nan;94812.28;5030989;28;20268;-70
2022/09/02 07:06:22;;;;;;;16.25;14.45;;;;;;;20.60;nan;94818.63;5031223;28;20669;-70
2022/09/02 07:08:48;;;;;;;14.82;13.05;;;;;;;20.74;nan;94823.56;5030413;28;20690;-71
2022/09/02 07:11:18;;;;;;;16.23;14.43;;;;;;;20.89;nan;94817.19;5031298;28;20251;-70
2022/09/02 07:13:45;;;;;;;13.18;11.82;;;;;;;20.86;nan;94820.03;5031863;28;20248;-71
2022/09/02 07:16:12;;;;;;;13.80;12.25;;;;;;;21.01;nan;94826.59;5031003;28;20234;-70
2022/09/02 07:18:39;;;;;;;14.50;12.75;;;;;;;20.99;nan;94822.47;5030473;28;21386;-70
2022/09/02 07:21:08;;;;;;;13.75;11.30;;;;;;;21.08;nan;94823.50;5031094;28;20824;-70
2022/09/02 07:23:37;;;;;;;12.02;11.10;;;;;;;21.20;nan;94826.00;5030964;28;20211;-71
2022/09/02 07:26:05;;;;;;;13.98;12.23;;;;;;;21.20;nan;94830.31;5030254;28;20638;-70
2022/09/02 07:28:33;;;;;;;12.30;11.13;;;;;;;21.26;nan;94828.09;5028996;28;20301;-71
2022/09/02 07:31:00;;;;;;;10.85;9.98;;;;;;;21.17;nan;94826.19;5031205;28;20195;-72
2022/09/02 07:33:26;;;;;;;11.27;10.27;;;;;;;21.21;nan;94831.97;5030957;28;20233;-71
2022/09/02 07:35:54;;;;;;;13.15;11.95;;;;;;;21.39;nan;94828.75;5029669;28;20805;-72
2022/09/02 07:38:20;;;;;;;14.68;12.50;;;;;;;21.42;nan;94825.09;5029700;28;20715;-70
2022/09/02 07:40:49;;;;;;;16.23;10.32;;;;;;;21.49;nan;94825.44;5029668;28;20222;-70
2022/09/02 07:43:17;;;;;;;11.38;10.30;;;;;;;21.53;nan;94822.47;5030180;28;20230;-70
2022/09/02 07:45:43;;;;;;;18.05;16.15;;;;;;;21.63;nan;94818.22;5030198;28;20213;-70
2022/09/02 07:48:10;;;;;;;9.95;8.93;;;;;;;21.52;nan;94826.03;5032104;28;20202;-70
2022/09/02 07:50:37;;;;;;;11.70;8.77;;;;;;;21.78;nan;94825.69;5030594;28;21748;-69
2022/09/02 07:53:05;;;;;;;12.25;10.77;;;;;;;21.98;nan;94827.47;5030426;28;20230;-69
2022/09/02 07:55:33;;;;;;;8.95;8.32;;;;;;;21.94;nan;94837.25;5029214;28;21959;-71
2022/09/02 07:58:02;;;;;;;8.63;8.13;;;;;;;21.93;nan;94835.59;5031318;28;20218;-69
2022/09/02 08:00:29;;;;;;;13.60;10.13;;;;;;;22.22;nan;94835.81;5030889;28;20670;-69
2022/09/02 08:02:57;;;;;;;10.45;8.30;;;;;;;22.48;nan;94838.81;5030502;28;20218;-70
2022/09/02 08:05:24;;;;;;;12.23;9.80;;;;;;;22.23;nan;94845.22;5029575;28;20889;-72
2022/09/02 08:07:51;;;;;;;9.82;8.82;;;;;;;22.02;nan;94852.19;5030713;28;20745;-70
2022/09/02 08:10:19;;;;;;;9.65;8.95;;;;;;;21.82;nan;94850.34;5029907;28;20256;-69
2022/09/02 08:12:47;;;;;;;10.02;9.23;;;;;;;21.71;nan;94846.03;5030631;28;20214;-69
2022/09/02 08:15:16;;;;;;;9.10;8.35;;;;;;;21.99;nan;94849.81;5029754;28;20680;-69
2022/09/02 08:17:43;;;;;;;10.05;9.18;;;;;;;21.90;nan;94858.31;5029946;28;20230;-70
2022/09/02 08:20:11;;;;;;;13.63;10.23;;;;;;;21.99;nan;94850.63;5029671;28;20214;-69
2022/09/02 08:22:39;;;;;;;10.10;8.95;;;;;;;22.30;nan;94853.28;5030207;28;20518;-71
2022/09/02 08:25:07;;;;;;;9.75;8.90;;;;;;;22.28;nan;94850.81;5028487;28;20751;-69
2022/09/02 08:27:34;;;;;;;9.65;8.80;;;;;;;22.20;nan;94855.00;5029666;28;20648;-69
2022/09/02 08:30:01;;;;;;;13.82;12.13;;;;;;;22.20;nan;94850.66;5030232;28;20206;-69
2022/09/02 08:32:31;;;;;;;9.88;9.02;;;;;;;22.14;nan;94855.50;5029907;28;20778;-69
2022/09/02 08:34:58;;;;;;;10.85;8.88;;;;;;;22.10;nan;94854.94;5029473;28;20213;-69
2022/09/02 08:37:25;;;;;;;9.63;8.73;;;;;;;22.14;nan;94852.91;5029044;28;20319;-69
2022/09/02 08:39:51;;;;;;;9.07;8.35;;;;;;;22.17;nan;94853.50;5029911;28;20216;-69
2022/09/02 08:42:23;;;;;;;8.80;8.00;;;;;;;22.33;nan;94853.03;5029585;28;20690;-69
2022/09/02 08:44:53;;;;;;;11.55;9.13;;;;;;;22.35;nan;94854.56;5028299;28;20288;-68
2022/09/02 08:47:24;;;;;;;8.68;7.97;;;;;;;22.01;nan;94848.78;5029168;28;20684;-69
2022/09/02 08:49:57;;;;;;;9.98;8.50;;;;;;;21.87;nan;94843.03;5029923;28;20204;-69
2022/09/02 08:52:31;;;;;;;9.60;8.80;;;;;;;21.80;nan;94844.47;5028313;28;20664;-68
2022/09/02 08:54:58;;;;;;;10.88;9.88;;;;;;;21.85;nan;94842.31;5027731;28;20789;-69
2022/09/02 08:57:26;;;;;;;10.23;9.27;;;;;;;22.08;nan;94837.88;5029663;28;20222;-69
2022/09/02 08:59:55;;;;;;;7.97;7.30;;;;;;;22.23;nan;94839.22;5028916;28;20245;-70
2022/09/02 09:02:27;;;;;;;8.70;8.02;;;;;;;22.43;nan;94833.22;5028794;28;20688;-69
2022/09/02 09:05:11;;;;;;;7.85;7.20;;;;;;;22.44;nan;94837.44;5028086;28;20291;-69
2022/09/02 09:07:52;;;;;;;8.07;7.38;;;;;;;22.71;nan;94831.69;5028504;28;20251;-70
2022/09/02 09:10:24;;;;;;;9.10;8.10;;;;;;;22.79;nan;94834.47;5030395;28;20275;-70
2022/09/02 09:13:15;;;;;;;14.43;9.68;;;;;;;22.65;nan;94838.22;5029099;28;20202;-69
2022/09/02 09:15:49;;;;;;;10.07;9.23;;;;;;;22.90;nan;94824.03;5028070;28;20688;-70
2022/09/02 09:18:19;;;;;;;10.93;8.55;;;;;;;23.16;nan;94828.72;5029322;28;20292;-71
2022/09/02 09:20:48;;;;;;;10.93;8.23;;;;;;;23.19;nan;94834.47;5029451;28;20210;-70
2022/09/02 09:23:25;;;;;;;13.18;8.55;;;;;;;23.34;nan;94832.31;5028503;28;20205;-70
2022/09/02 09:25:56;;;;;;;10.18;7.53;;;;;;;23.31;nan;94827.38;5027869;28;20208;-67
2022/09/02 09:28:22;;;;;;;14.20;9.02;;;;;;;23.07;nan;94818.19;5028449;28;20705;-67
2022/09/02 09:30:49;;;;;;;13.35;8.85;;;;;;;23.13;nan;94826.41;5028255;28;20498;-64
2022/09/02 09:33:22;;;;;;;9.63;8.50;;;;;;;23.24;nan;94821.13;5028877;28;20209;-68
2022/09/02 09:35:51;;;;;;;14.18;12.55;;;;;;;23.31;nan;94820.44;5028762;28;20210;-67
2022/09/02 09:38:30;;;;;;;11.38;10.25;;;;;;;23.62;nan;94816.00;5028757;28;20612;-67
2022/09/02 09:41:14;;;;;;;13.68;9.73;;;;;;;24.01;nan;94813.34;5028396;28;20232;-67
2022/09/02 09:43:41;;;;;;;19.65;9.70;;;;;;;24.35;nan;94801.56;5027344;28;20210;-67
2022/09/02 09:46:25;;;;;;;10.13;9.18;;;;;;;24.41;nan;94806.22;5027284;28;20206;-67
2022/09/02 09:48:52;;;;;;;9.88;8.98;;;;;;;24.35;nan;94806.78;5027923;28;20289;-69
2022/09/02 09:51:20;;;;;;;13.32;9.23;;;;;;;24.51;nan;94815.72;5027789;28;20363;-67
2022/09/02 09:53:48;;;;;;;9.35;8.55;;;;;;;24.46;nan;94812.78;5026990;28;20326;-66
2022/09/02 09:56:29;;;;;;;15.65;9.85;;;;;;;24.43;nan;94813.88;5026404;28;20594;-68
2022/09/02 09:58:56;;;;;;;10.38;9.30;;;;;;;24.14;nan;94807.88;5028607;28;20233;-68
2022/09/02 10:01:25;;;;;;;12.60;9.85;;;;;;;24.07;nan;94818.81;5028445;28;20603;-67
2022/09/02 10:03:55;;;;;;;9.50;8.63;;;;;;;23.95;nan;94812.16;5027653;28;20218;-68
2022/09/02 10:06:25;;;;;;;9.45;8.73;;;;;;;23.97;nan;94820.63;5030613;28;20222;-67
2022/09/02 10:08:55;;;;;;;9.48;8.57;;;;;;;24.01;nan;94816.78;5030891;28;20299;-67
2022/09/02 10:11:24;;;;;;;12.32;9.30;;;;;;;24.01;nan;94819.38;5030888;28;22203;-67
2022/09/02 10:14:01;;;;;;;11.70;9.25;;;;;;;23.33;nan;94812.50;5030510;28;20198;-67
2022/09/02 10:16:43;;;;;;;18.05;13.95;;;;;;;23.50;nan;94804.09;5030095;28;20310;-69
2022/09/02 10:19:21;;;;;;;14.50;13.00;;;;;;;23.87;nan;94800.81;5032193;28;20896;-68
2022/09/02 10:22:35;;;;;;;15.27;10.40;;;;;;;24.07;nan;94813.63;5031812;28;20233;-68
2022/09/02 10:25:15;;;;;;;12.95;9.70;;;;;;;23.98;nan;94811.06;4987049;28;20348;-68
2022/09/02 10:27:52;;;;;;;11.88;10.68;;;;;;;23.95;nan;94812.16;5031143;28;20210;-69
2022/09/02 10:30:21;;;;;;;12.15;10.63;;;;;;;23.93;nan;94810.66;5031359;28;20667;-69
2022/09/02 10:33:08;;;;;;;11.40;10.50;;;;;;;24.07;nan;94807.63;5030274;28;20296;-67
2022/09/02 10:35:42;;;;;;;15.18;12.05;;;;;;;24.23;nan;94805.28;5026799;28;20260;-68
2022/09/02 10:38:35;;;;;;;15.27;13.68;;;;;;;24.26;nan;94812.78;5031443;28;21034;-68
2022/09/02 10:41:14;;;;;;;19.27;15.55;;;;;;;24.49;nan;94808.13;5030831;28;20207;-68
2022/09/02 10:44:04;;;;;;;12.00;9.88;;;;;;;24.62;nan;94803.41;5030599;28;20594;-68
2022/09/02 10:46:39;;;;;;;13.10;11.73;;;;;;;24.76;nan;94815.09;5029699;28;20260;-69
2022/09/02 10:49:15;;;;;;;16.50;13.38;;;;;;;24.75;nan;94809.06;5031105;28;20711;-68
2022/09/02 10:51:49;;;;;;;13.77;12.38;;;;;;;24.77;nan;94816.72;5030524;28;20567;-67
2022/09/02 10:54:34;;;;;;;14.93;12.55;;;;;;;24.92;nan;94811.91;5032363;28;20233;-67
2022/09/02 10:57:07;;;;;;;12.52;10.85;;;;;;;24.94;nan;94813.38;5030554;28;20377;-68
2022/09/02 10:59:41;;;;;;;12.40;11.27;;;;;;;25.02;nan;94810.91;5032202;28;20588;-67
2022/09/02 11:02:14;;;;;;;14.68;11.35;;;;;;;24.81;nan;94810.28;5031024;28;20295;-68
2022/09/02 11:04:46;;;;;;;13.75;11.00;;;;;;;24.98;nan;94804.38;5031538;28;20275;-67
2022/09/02 11:07:19;;;;;;;10.57;9.57;;;;;;;25.26;nan;94807.75;5030630;28;20889;-69
2022/09/02 11:09:51;;;;;;;12.43;11.32;;;;;;;25.56;nan;94793.56;5030880;28;20226;-66
2022/09/02 11:12:27;;;;;;;12.05;10.80;;;;;;;25.72;nan;94793.78;5031443;28;20315;-69
2022/09/02 11:15:04;;;;;;;11.95;10.65;;;;;;;25.87;nan;94785.41;5030944;28;20206;-68
2022/09/02 11:17:37;;;;;;;10.35;9.45;;;;;;;25.93;nan;94784.81;5031539;28;20300;-68
2022/09/02 11:20:13;;;;;;;14.23;10.45;;;;;;;26.19;nan;94785.66;5031052;28;20202;-66
2022/09/02 11:22:53;;;;;;;15.10;10.10;;;;;;;26.32;nan;94786.06;5031994;28;21130;-68
2022/09/02 11:25:25;;;;;;;12.23;10.30;;;;;;;26.22;nan;94789.75;5030442;28;20210;-68
2022/09/02 11:28:02;;;;;;;10.32;9.27;;;;;;;26.04;nan;94780.16;5031702;28;20202;-69
2022/09/02 11:30:39;;;;;;;10.38;9.35;;;;;;;26.04;nan;94787.16;5032188;28;20312;-68
2022/09/02 11:33:15;;;;;;;25.63;17.55;;;;;;;25.22;nan;94792.59;5031331;28;20264;-68
2022/09/02 11:35:43;;;;;;;27.42;20.45;;;;;;;24.76;nan;94784.72;5029855;28;20715;-69
2022/09/02 11:38:27;;;;;;;23.20;18.90;;;;;;;24.38;nan;94777.09;5030732;28;20305;-68
2022/09/02 11:41:17;;;;;;;29.40;25.02;;;;;;;24.48;nan;94779.69;5031434;28;20777;-67
2022/09/02 11:43:50;;;;;;;23.35;18.75;;;;;;;24.64;nan;94766.88;5030096;28;20714;-67
2022/09/02 11:47:01;;;;;;;13.55;12.18;;;;;;;24.88;nan;94761.97;5030323;28;20207;-68
2022/09/02 11:49:46;;;;;;;13.27;12.27;;;;;;;25.08;nan;94755.72;5029987;28;20194;-67
2022/09/02 11:52:27;;;;;;;28.70;21.75;;;;;;;25.17;nan;94745.41;5031587;28;20229;-67
2022/09/02 11:55:08;;;;;;;14.60;10.95;;;;;;;25.17;nan;94755.81;5030984;28;20840;-68